Latest Weather Observations for Ulladulla

IDN60901

Issued at 6:12 pm EDT Sunday 1 February 2015 (issued every 10 minutes, with the page automatically refreshed every 10 minutes)

About weather observations | Map of Canberra area stations | Latest observations for Canberra area | Other Formats
Station Details ID: 069138 Name: ULLADULLA AWS Lat: -35.36 Lon: 150.48 Height: 35.7 m
Data from the previous 72 hours. | See also: Recent months at Ulladulla
Date/Time
EDT
Tmp

°C
App
Tmp
°C
Dew
Point
°C
Rel
Hum
%
Delta-T

°C
Wind Press
QNH
hPa
Press
MSL
hPa
Rain
since
9 am
mm
Dir
 
Spd
km/h
Gust
km/h
Spd
kts
Gust
kts
01/06:00pm 20.2 18.4 15.4 74 2.8 S 19 26 10 14 1010.9 1010.8 0.0
01/05:30pm 21.6 20.5 16.3 72 3.2 S 17 24 9 13 1010.8 1010.7 0.0
01/05:00pm 21.3 20.2 16.3 73 3.0 S 17 24 9 13 1010.6 1010.5 0.0
01/04:30pm 21.7 20.1 16.0 70 3.4 SSE 19 24 10 13 1010.6 1010.5 0.0
01/04:00pm 20.6 18.6 14.9 70 3.4 SSE 19 26 10 14 1010.5 1010.4 0.0
01/03:30pm 20.9 18.7 14.5 67 3.7 SSE 19 26 10 14 1010.5 1010.4 0.0
01/03:00pm 21.3 19.2 14.7 66 3.9 SSE 19 26 10 14 1010.5 1010.4 0.0
01/02:30pm 21.2 19.4 14.4 65 4.0 SSE 17 24 9 13 1010.4 1010.3 0.0
01/02:00pm 21.1 19.1 13.8 63 4.2 SSE 17 24 9 13 1010.5 1010.4 0.0
01/01:30pm 22.2 19.8 13.8 59 4.9 SSE 19 26 10 14 1010.6 1010.5 0.0
01/01:00pm 21.7 19.6 13.6 60 4.7 SSE 17 24 9 13 1010.7 1010.6 0.0
01/12:30pm 21.2 19.6 13.9 63 4.2 S 15 20 8 11 1010.9 1010.8 0.0
01/12:00pm 21.5 20.8 14.4 64 4.2 S 11 17 6 9 1011.0 1010.9 0.0
01/11:30am 22.3 21.6 14.2 60 4.7 S 11 13 6 7 1010.9 1010.8 0.0
01/11:00am 22.1 21.6 15.0 64 4.2 S 11 15 6 8 1010.9 1010.8 0.0
01/10:30am 21.1 19.6 13.0 60 4.6 S 13 15 7 8 1010.7 1010.6 0.0
01/10:00am 21.5 21.3 14.6 65 4.1 SSW 9 15 5 8 1010.5 1010.4 0.0
01/09:30am 20.9 21.0 15.4 71 3.3 SSW 9 15 5 8 1010.4 1010.3 0.0
01/09:00am 20.4 20.8 15.4 73 3.0 SSW 7 11 4 6 1010.2 1010.1 0.0
01/08:30am 20.1 21.2 15.7 76 2.6 SSW 4 7 2 4 1010.0 1009.9 0.0
01/08:00am 19.1 20.0 15.2 78 2.3 SW 4 6 2 3 1009.9 1009.8 0.0
01/07:30am 18.3 18.6 14.4 78 2.3 SW 6 9 3 5 1009.6 1009.5 0.0
01/07:00am 17.3 17.7 14.8 85 1.4 SW 6 9 3 5 1009.4 1009.3 0.0
01/06:30am 16.6 16.8 14.2 86 1.4 W 6 7 3 4 1009.2 1009.1 0.0
01/05:30am 17.4 17.7 15.0 86 1.4 SSW 7 11 4 6 1008.6 1008.5 0.0
01/05:00am 17.1 17.9 13.8 81 1.9 WSW 2 4 1 2 1008.5 1008.4 0.0
01/04:30am 17.6 18.5 14.1 80 2.0 WSW 2 4 1 2 1008.4 1008.3 0.0
01/04:00am 18.2 19.3 14.5 79 2.1 NW 2 4 1 2 1008.3 1008.2 0.0
01/03:30am 18.3 19.0 14.6 79 2.1 NW 4 6 2 3 1008.4 1008.3 0.0
01/03:00am 17.9 18.6 14.4 80 2.0 NW 4 6 2 3 1008.4 1008.3 0.0
01/02:30am 17.9 18.2 14.6 81 1.9 NW 6 9 3 5 1008.7 1008.6 0.0
01/02:00am 17.8 18.1 14.5 81 1.9 NW 6 7 3 4 1008.7 1008.6 0.0
01/01:30am 18.0 18.3 14.5 80 2.0 NNW 6 7 3 4 1008.8 1008.7 0.0
01/01:00am 18.8 19.6 14.7 77 2.4 NNW 4 6 2 3 1009.0 1008.9 0.0
01/12:30am 20.0 20.7 14.6 71 3.2 WSW 4 11 2 6 1009.3 1009.2 0.0
01/12:00am 20.2 20.2 15.2 73 3.0 S 9 15 5 8 1009.6 1009.5 0.0
 
Date/Time
EDT
Tmp

°C
App
Tmp
°C
Dew
Point
°C
Rel
Hum
%
Delta-T

°C
Wind Press
QNH
hPa
Press
MSL
hPa
Rain
since
9 am
mm
Dir
 
Spd
km/h
Gust
km/h
Spd
kts
Gust
kts
31/11:30pm 20.0 20.1 15.6 76 2.6 S 9 17 5 9 1009.6 1009.5 0.0
31/11:00pm 19.6 21.2 14.8 74 2.8 CALM 0 2 0 1 1009.7 1009.6 0.0
31/10:30pm 19.8 21.0 15.0 74 2.8 SW 2 6 1 3 1009.7 1009.6 0.0
31/10:00pm 20.1 21.1 15.3 74 2.8 SSW 4 7 2 4 1009.4 1009.3 0.0
31/09:30pm 20.4 20.0 15.2 72 3.1 S 11 19 6 10 1009.2 1009.1 0.0
31/09:00pm 20.4 21.0 15.2 72 3.1 S 6 9 3 5 1008.8 1008.7 0.0
31/08:30pm 20.4 20.6 14.7 70 3.3 S 7 11 4 6 1008.4 1008.3 0.0
31/08:00pm 20.4 20.5 14.5 69 3.5 S 7 11 4 6 1008.2 1008.1 0.0
31/07:30pm 20.6 20.0 14.7 69 3.5 S 11 15 6 8 1007.8 1007.7 0.0
31/07:00pm 20.4 20.0 14.1 67 3.7 S 9 13 5 7 1007.4 1007.3 0.0
31/06:30pm 20.9 20.9 14.3 66 3.8 SSE 7 13 4 7 1007.0 1006.9 0.0
31/06:00pm 21.4 21.3 13.8 62 4.4 SSE 7 11 4 6 1006.7 1006.6 0.0
31/05:30pm 21.7 21.5 13.1 58 4.9 SSE 6 9 3 5 1006.6 1006.5 0.0
31/05:00pm 22.3 21.8 12.8 55 5.4 SSE 7 15 4 8 1006.5 1006.4 0.0
31/04:30pm 22.4 21.3 11.8 51 6.0 SSE 9 15 5 8 1006.5 1006.4 0.0
31/04:00pm 23.0 22.9 13.8 56 5.4 SSE 7 13 4 7 1006.4 1006.3 0.0
31/03:30pm 22.6 22.1 12.5 53 5.8 SSE 7 13 4 7 1006.4 1006.3 0.0
31/03:00pm 21.9 21.2 11.9 53 5.6 SSE 7 15 4 8 1006.4 1006.3 0.0
31/02:30pm 21.9 20.9 11.0 50 6.0 SSE 7 13 4 7 1006.5 1006.4 0.0
31/02:00pm 21.9 20.1 11.0 50 6.0 SSE 11 13 6 7 1006.6 1006.5 0.0
31/01:30pm 21.3 20.6 10.2 49 6.0 SE 4 7 2 4 1006.8 1006.7 0.0
31/01:00pm 21.5 20.6 9.4 46 6.5 ENE 4 7 2 4 1007.0 1006.9 0.0
31/12:30pm 21.9 20.6 9.1 44 6.8 SSE 6 11 3 6 1007.4 1007.3 0.0
31/12:00pm 21.9 20.6 9.8 46 6.6 ESE 7 13 4 7 1007.5 1007.4 0.0
31/11:30am 21.7 20.1 8.9 44 6.8 E 7 11 4 6 1007.8 1007.7 0.0
31/11:00am 21.8 20.8 10.9 50 6.0 NE 7 13 4 7 1007.9 1007.8 0.0
31/10:30am 20.6 19.9 12.1 58 4.8 NNE 7 11 4 6 1007.9 1007.8 0.0
31/10:00am 19.9 19.3 12.2 61 4.3 NNE 7 9 4 5 1007.8 1007.7 0.0
31/09:30am 19.6 18.9 12.1 62 4.2 NNE 7 9 4 5 1007.6 1007.5 0.0
31/09:00am 19.9 18.8 10.6 55 5.1 NW 7 11 4 6 1007.6 1007.5 0.4
31/08:30am 18.1 17.1 10.2 60 4.2 WNW 6 9 3 5 1007.6 1007.5 0.4
31/08:00am 17.7 16.7 10.3 62 4.0 WNW 6 9 3 5 1007.5 1007.4 0.4
31/07:30am 17.1 15.8 9.8 62 3.8 W 7 9 4 5 1007.3 1007.2 0.4
31/07:00am 16.6 15.4 9.5 63 3.7 W 6 11 3 6 1007.0 1006.9 0.4
31/06:30am 16.3 15.0 9.3 63 3.6 W 6 9 3 5 1006.7 1006.6 0.4
31/06:00am 16.0 14.8 9.4 65 3.4 W 6 9 3 5 1006.5 1006.4 0.4
31/05:30am 16.0 15.1 9.2 64 3.5 WSW 4 6 2 3 1006.2 1006.1 0.4
31/05:00am 15.9 15.0 9.3 65 3.4 SSW 4 6 2 3 1006.0 1005.8 0.4
31/04:30am 15.5 14.1 9.6 68 3.1 WSW 7 9 4 5 1006.0 1005.8 0.4
31/04:00am 15.3 14.0 9.9 70 2.8 W 7 9 4 5 1006.1 1006.0 0.4
31/03:30am 14.7 13.2 9.3 70 2.8 WSW 7 9 4 5 1006.3 1006.2 0.4
31/03:00am 15.0 14.1 9.4 69 2.9 WNW 4 6 2 3 1006.4 1006.3 0.4
31/02:30am 15.4 14.3 10.0 70 2.8 WSW 6 7 3 4 1006.6 1006.5 0.4
31/02:00am 15.2 14.2 10.2 72 2.6 SW 6 9 3 5 1006.9 1006.8 0.4
31/01:30am 15.5 14.5 10.3 71 2.7 WSW 6 9 3 5 1007.1 1007.0 0.4
31/01:00am 15.8 14.9 10.6 71 2.8 WSW 6 9 3 5 1007.4 1007.3 0.4
31/12:30am 16.2 15.4 11.2 72 2.7 WSW 6 9 3 5 1007.4 1007.3 0.4
31/12:00am 16.7 16.4 11.4 71 2.9 WSW 4 7 2 4 1007.6 1007.5 0.4
 
Date/Time
EDT
Tmp

°C
App
Tmp
°C
Dew
Point
°C
Rel
Hum
%
Delta-T

°C
Wind Press
QNH
hPa
Press
MSL
hPa
Rain
since
9 am
mm
Dir
 
Spd
km/h
Gust
km/h
Spd
kts
Gust
kts
30/11:30pm 17.2 16.7 12.1 72 2.8 SW 6 13 3 7 1007.7 1007.6 0.4
30/11:00pm 17.4 16.8 12.3 72 2.8 SW 7 11 4 6 1007.7 1007.6 0.4
30/10:30pm 17.6 17.2 12.9 74 2.6 SW 7 9 4 5 1007.7 1007.6 0.4
30/10:00pm 17.6 17.1 13.7 78 2.2 SW 9 13 5 7 1007.6 1007.5 0.4
30/09:30pm 17.2 17.2 14.3 83 1.7 SW 7 11 4 6 1007.6 1007.5 0.4
30/09:00pm 17.0 16.6 14.1 83 1.7 SW 9 11 5 6 1007.5 1007.4 0.4
30/08:30pm 17.0 16.9 13.9 82 1.8 SW 7 13 4 7 1007.3 1007.2 0.4
30/08:00pm 17.5 17.2 14.4 82 1.8 SW 9 15 5 8 1007.2 1007.1 0.4
30/07:30pm 17.6 17.3 14.5 82 1.8 SW 9 13 5 7 1007.0 1006.9 0.4
30/07:00pm 19.1 17.9 13.9 72 3.0 SSW 13 20 7 11 1007.0 1006.9 0.2
30/06:30pm 20.6 19.4 14.0 66 3.8 SSW 13 26 7 14 1006.4 1006.3 0.0
30/06:00pm 21.1 18.7 14.5 66 3.9 S 20 32 11 17 1005.9 1005.7 0.0
30/05:30pm 20.4 16.8 14.3 68 3.5 S 26 35 14 19 1005.9 1005.7 0.0
30/05:00pm 20.2 16.3 14.3 69 3.4 S 28 39 15 21 1005.8 1005.6 0.0
30/04:30pm 21.1 16.0 13.8 63 4.2 S 33 43 18 23 1005.8 1005.6 0.0
30/04:00pm 21.8 16.8 13.4 59 4.9 S 32 41 17 22 1005.6 1005.4 0.0
30/03:30pm 21.4 17.1 13.1 59 4.8 S 28 41 15 22 1005.7 1005.5 0.0
30/03:00pm 22.1 19.5 13.7 59 4.9 SSW 20 32 11 17 1005.7 1005.5 0.0
30/02:30pm 22.3 19.4 12.8 55 5.4 SSW 20 30 11 16 1005.9 1005.7 0.0
30/02:00pm 22.3 18.2 11.4 50 6.1 SSW 24 37 13 20 1006.1 1006.0 0.0
30/01:30pm 22.7 19.1 10.5 46 6.7 SW 20 35 11 19 1006.3 1006.2 0.0
30/01:00pm 20.9 17.1 9.8 49 6.0 SW 20 37 11 20 1006.7 1006.6 0.0
30/12:30pm 20.1 18.6 13.1 64 4.0 SW 13 20 7 11 1007.1 1007.0 0.0
30/12:00pm 17.5 17.0 12.6 73 2.7 SW 7 13 4 7 1007.7 1007.6 0.0
30/11:30am 17.2 15.6 11.7 70 3.0 WSW 11 17 6 9 1008.2 1008.1 0.0
30/11:00am 17.1 15.8 11.4 69 3.1 WSW 9 20 5 11 1008.4 1008.3 0.0
30/10:30am 17.4 15.6 10.8 65 3.5 WSW 11 22 6 12 1008.6 1008.5 0.0
30/10:00am 16.3 14.8 10.6 69 3.0 SW 9 19 5 10 1009.0 1008.9 0.0
30/09:30am 15.9 13.6 9.1 64 3.5 SW 11 20 6 11 1009.0 1008.9 0.0
30/09:00am 15.7 13.8 9.1 65 3.4 SW 9 17 5 9 1009.1 1009.0 0.0
30/08:30am 15.7 13.8 8.9 64 3.5 WSW 9 17 5 9 1009.0 1008.9 0.0
30/08:00am 14.8 12.4 8.5 66 3.2 SW 11 19 6 10 1008.9 1008.8 0.0
30/07:30am 14.4 11.8 7.9 65 3.2 WSW 11 19 6 10 1008.8 1008.7 0.0
30/07:00am 14.2 11.2 7.5 64 3.3 WSW 13 20 7 11 1008.7 1008.6 0.0
30/06:30am 13.9 11.2 7.4 65 3.2 WSW 11 19 6 10 1008.6 1008.5 0.0
30/06:00am 13.7 11.3 7.2 65 3.2 WSW 9 17 5 9 1008.5 1008.4 0.0
30/05:30am 13.8 11.1 7.3 65 3.2 WSW 11 19 6 10 1008.4 1008.3 0.0
30/05:00am 13.7 11.3 7.2 65 3.2 WSW 9 17 5 9 1008.5 1008.4 0.0
30/04:30am 13.9 11.2 7.4 65 3.2 WSW 11 19 6 10 1008.6 1008.5 0.0
30/04:00am 13.8 11.9 7.6 66 3.1 WSW 7 15 4 8 1008.8 1008.7 0.0
30/03:30am 13.8 12.0 7.8 67 3.0 WSW 7 13 4 7 1009.1 1009.0 0.0
30/03:00am 14.0 12.2 8.0 67 3.0 WSW 7 13 4 7 1009.4 1009.3 0.0
30/02:30am 14.7 12.2 8.0 64 3.3 WSW 11 19 6 10 1009.6 1009.5 0.0
30/02:00am 15.0 12.5 8.0 63 3.5 WSW 11 20 6 11 1010.0 1009.9 0.0
30/01:30am 15.2 11.9 8.2 63 3.5 SW 15 20 8 11 1010.1 1010.0 0.0
30/01:00am 15.3 12.0 8.1 62 3.6 SW 15 24 8 13 1010.4 1010.3 0.0
30/12:30am 15.3 12.4 8.3 63 3.5 SW 13 20 7 11 1010.8 1010.7 0.0
30/12:00am 15.4 12.6 8.4 63 3.5 SSW 13 20 7 11 1011.2 1011.1 0.0
 
Date/Time
EDT
Tmp

°C
App
Tmp
°C
Dew
Point
°C
Rel
Hum
%
Delta-T

°C
Wind Press
QNH
hPa
Press
MSL
hPa
Rain
since
9 am
mm
Dir
 
Spd
km/h
Gust
km/h
Spd
kts
Gust
kts
29/11:30pm 16.3 11.9 9.0 62 3.8 SW 22 39 12 21 1011.3 1011.2 0.0
29/11:00pm 16.7 11.7 9.4 62 3.8 SSW 26 41 14 22 1011.6 1011.5 0.0
29/10:30pm 16.7 11.6 9.1 61 3.9 SSW 26 39 14 21 1011.8 1011.7 0.0
29/10:00pm 17.0 12.8 9.9 63 3.7 SSW 22 43 12 23 1012.1 1012.0 0.0
29/09:30pm 17.3 12.6 9.2 59 4.2 SSW 24 43 13 23 1012.0 1011.9 0.0
29/09:00pm 17.5 13.2 10.6 64 3.7 SSW 24 43 13 23 1012.1 1012.0 0.0
29/08:30pm 17.3 14.1 10.0 62 3.9 SW 17 26 9 14 1011.9 1011.8 0.0
29/08:10pm 18.4 13.7 11.9 66 3.6 SSW 28 48 15 26 1011.7 1011.6 0.0
29/08:00pm 18.4 13.2 11.5 64 3.8 SSW 30 46 16 25 1011.9 1011.8 0.0
29/07:30pm 18.7 12.7 10.8 60 4.3 SSW 33 46 18 25 1011.5 1011.4 0.0
29/07:10pm 18.9 11.5 11.2 61 4.2 S 41 61 22 33 1011.3 1011.2 0.0
29/07:00pm 19.0 11.3 12.0 64 3.9 S 44 59 24 32 1011.3 1011.2 0.0
29/06:50pm 19.0 12.2 12.0 64 3.9 S 39 59 21 32 1011.4 1011.3 0.0
29/06:30pm 18.8 10.0 12.1 65 3.7 S 50 65 27 35 1011.3 1011.2 0.0

Latest Capital City Observations: Canberra | Sydney | Melbourne | Brisbane | Adelaide | Perth | Hobart | Darwin

Other Formats:

Comma delimited format used in spreadsheet applications
http://www.bom.gov.au/fwo/IDN60903/IDN60903.94938.axf

JavaScript Object Notation format (JSON) in row-major order
http://www.bom.gov.au/fwo/IDN60903/IDN60903.94938.json